sensor_id;sensor_type;location;lat;lon;timestamp;P1;durP1;ratioP1;P2;durP2;ratioP2
2055;SDS011;1033;52.560;13.374;2022-12-13T00:00:13;17.08;;;9.23;;
2055;SDS011;1033;52.560;13.374;2022-12-13T00:02:46;11.73;;;8.48;;
2055;SDS011;1033;52.560;13.374;2022-12-13T00:05:18;14.23;;;7.20;;
2055;SDS011;1033;52.560;13.374;2022-12-13T00:07:50;19.52;;;9.88;;
2055;SDS011;1033;52.560;13.374;2022-12-13T00:10:27;15.98;;;8.35;;
2055;SDS011;1033;52.560;13.374;2022-12-13T00:12:59;14.05;;;8.35;;
2055;SDS011;1033;52.560;13.374;2022-12-13T00:15:35;14.95;;;7.93;;
2055;SDS011;1033;52.560;13.374;2022-12-13T00:18:05;18.42;;;9.95;;
2055;SDS011;1033;52.560;13.374;2022-12-13T00:20:39;10.63;;;8.23;;
2055;SDS011;1033;52.560;13.374;2022-12-13T00:23:10;9.93;;;8.35;;
2055;SDS011;1033;52.560;13.374;2022-12-13T00:25:41;11.48;;;7.53;;
2055;SDS011;1033;52.560;13.374;2022-12-13T00:28:13;15.25;;;9.40;;
2055;SDS011;1033;52.560;13.374;2022-12-13T00:30:54;14.75;;;9.20;;
2055;SDS011;1033;52.560;13.374;2022-12-13T00:33:52;15.95;;;10.10;;
2055;SDS011;1033;52.560;13.374;2022-12-13T00:36:27;11.10;;;6.40;;
2055;SDS011;1033;52.560;13.374;2022-12-13T00:39:07;14.95;;;7.78;;
2055;SDS011;1033;52.560;13.374;2022-12-13T00:41:41;11.20;;;6.68;;
2055;SDS011;1033;52.560;13.374;2022-12-13T00:44:13;19.50;;;7.45;;
2055;SDS011;1033;52.560;13.374;2022-12-13T00:46:48;11.70;;;7.72;;
2055;SDS011;1033;52.560;13.374;2022-12-13T00:49:19;17.25;;;8.40;;
2055;SDS011;1033;52.560;13.374;2022-12-13T00:51:51;18.33;;;9.30;;
2055;SDS011;1033;52.560;13.374;2022-12-13T00:54:25;20.73;;;9.93;;
2055;SDS011;1033;52.560;13.374;2022-12-13T00:56:59;10.63;;;7.35;;
2055;SDS011;1033;52.560;13.374;2022-12-13T00:59:32;16.40;;;8.15;;
2055;SDS011;1033;52.560;13.374;2022-12-13T01:02:07;14.82;;;8.95;;
2055;SDS011;1033;52.560;13.374;2022-12-13T01:04:43;11.00;;;8.48;;
2055;SDS011;1033;52.560;13.374;2022-12-13T01:07:29;11.68;;;6.50;;
2055;SDS011;1033;52.560;13.374;2022-12-13T01:10:01;9.20;;;6.30;;
2055;SDS011;1033;52.560;13.374;2022-12-13T01:12:36;14.80;;;7.35;;
2055;SDS011;1033;52.560;13.374;2022-12-13T01:15:07;12.45;;;7.35;;
2055;SDS011;1033;52.560;13.374;2022-12-13T01:17:41;8.55;;;6.97;;
2055;SDS011;1033;52.560;13.374;2022-12-13T01:20:13;13.00;;;7.45;;
2055;SDS011;1033;52.560;13.374;2022-12-13T01:22:44;10.75;;;7.10;;
2055;SDS011;1033;52.560;13.374;2022-12-13T01:25:15;16.05;;;8.25;;
2055;SDS011;1033;52.560;13.374;2022-12-13T01:27:45;14.20;;;8.32;;
2055;SDS011;1033;52.560;13.374;2022-12-13T01:30:20;15.60;;;7.60;;
2055;SDS011;1033;52.560;13.374;2022-12-13T01:32:54;16.45;;;8.57;;
2055;SDS011;1033;52.560;13.374;2022-12-13T01:35:26;14.77;;;7.20;;
2055;SDS011;1033;52.560;13.374;2022-12-13T01:37:58;12.75;;;8.65;;
2055;SDS011;1033;52.560;13.374;2022-12-13T01:40:42;13.88;;;8.20;;
2055;SDS011;1033;52.560;13.374;2022-12-13T01:43:15;14.95;;;6.18;;
2055;SDS011;1033;52.560;13.374;2022-12-13T01:45:47;12.73;;;7.85;;
2055;SDS011;1033;52.560;13.374;2022-12-13T01:48:21;19.13;;;9.07;;
2055;SDS011;1033;52.560;13.374;2022-12-13T01:50:59;18.80;;;8.30;;
2055;SDS011;1033;52.560;13.374;2022-12-13T01:53:36;12.35;;;7.55;;
2055;SDS011;1033;52.560;13.374;2022-12-13T01:56:12;14.90;;;9.18;;
2055;SDS011;1033;52.560;13.374;2022-12-13T01:58:51;15.90;;;9.45;;
2055;SDS011;1033;52.560;13.374;2022-12-13T02:01:25;15.85;;;8.30;;
2055;SDS011;1033;52.560;13.374;2022-12-13T02:03:59;10.98;;;8.00;;
2055;SDS011;1033;52.560;13.374;2022-12-13T02:06:31;13.82;;;9.38;;
2055;SDS011;1033;52.560;13.374;2022-12-13T02:09:06;14.05;;;8.57;;
2055;SDS011;1033;52.560;13.374;2022-12-13T02:11:40;14.10;;;8.75;;
2055;SDS011;1033;52.560;13.374;2022-12-13T02:14:11;20.15;;;9.43;;
2055;SDS011;1033;52.560;13.374;2022-12-13T02:16:46;12.65;;;8.18;;
2055;SDS011;1033;52.560;13.374;2022-12-13T02:19:56;17.45;;;9.40;;
2055;SDS011;1033;52.560;13.374;2022-12-13T02:23:01;14.70;;;7.60;;
2055;SDS011;1033;52.560;13.374;2022-12-13T02:26:02;15.73;;;7.88;;
2055;SDS011;1033;52.560;13.374;2022-12-13T02:29:08;9.68;;;5.50;;
2055;SDS011;1033;52.560;13.374;2022-12-13T02:32:11;17.33;;;9.95;;
2055;SDS011;1033;52.560;13.374;2022-12-13T02:34:53;11.00;;;7.03;;
2055;SDS011;1033;52.560;13.374;2022-12-13T02:37:34;13.18;;;8.80;;
2055;SDS011;1033;52.560;13.374;2022-12-13T02:40:17;10.88;;;6.88;;
2055;SDS011;1033;52.560;13.374;2022-12-13T02:42:55;12.02;;;7.53;;
2055;SDS011;1033;52.560;13.374;2022-12-13T02:45:37;21.05;;;8.18;;
2055;SDS011;1033;52.560;13.374;2022-12-13T02:48:18;12.35;;;8.25;;
2055;SDS011;1033;52.560;13.374;2022-12-13T02:54:13;16.88;;;10.15;;
2055;SDS011;1033;52.560;13.374;2022-12-13T02:56:52;35.30;;;9.30;;
2055;SDS011;1033;52.560;13.374;2022-12-13T02:59:25;18.42;;;10.63;;
2055;SDS011;1033;52.560;13.374;2022-12-13T03:02:02;17.50;;;10.55;;
2055;SDS011;1033;52.560;13.374;2022-12-13T03:05:01;18.60;;;9.38;;
2055;SDS011;1033;52.560;13.374;2022-12-13T03:08:00;15.15;;;8.95;;
2055;SDS011;1033;52.560;13.374;2022-12-13T03:10:47;13.77;;;8.15;;
2055;SDS011;1033;52.560;13.374;2022-12-13T03:13:25;19.33;;;12.70;;
2055;SDS011;1033;52.560;13.374;2022-12-13T03:16:08;18.25;;;10.95;;
2055;SDS011;1033;52.560;13.374;2022-12-13T03:18:49;15.90;;;10.65;;
2055;SDS011;1033;52.560;13.374;2022-12-13T03:21:24;15.10;;;9.23;;
2055;SDS011;1033;52.560;13.374;2022-12-13T03:23:55;16.65;;;9.85;;
2055;SDS011;1033;52.560;13.374;2022-12-13T03:26:25;12.57;;;7.57;;
2055;SDS011;1033;52.560;13.374;2022-12-13T03:29:34;19.52;;;10.90;;
2055;SDS011;1033;52.560;13.374;2022-12-13T03:33:08;17.50;;;9.23;;
2055;SDS011;1033;52.560;13.374;2022-12-13T04:18:43;19.65;;;11.00;;
2055;SDS011;1033;52.560;13.374;2022-12-13T04:22:43;19.42;;;10.45;;
2055;SDS011;1033;52.560;13.374;2022-12-13T04:31:18;15.80;;;8.68;;
2055;SDS011;1033;52.560;13.374;2022-12-13T04:43:39;20.23;;;9.52;;
2055;SDS011;1033;52.560;13.374;2022-12-13T05:20:35;15.75;;;9.52;;
2055;SDS011;1033;52.560;13.374;2022-12-13T06:18:59;13.55;;;8.68;;
2055;SDS011;1033;52.560;13.374;2022-12-13T06:27:17;22.05;;;9.25;;
2055;SDS011;1033;52.560;13.374;2022-12-13T08:41:58;20.92;;;13.52;;
2055;SDS011;1033;52.560;13.374;2022-12-13T08:44:46;24.23;;;13.57;;
2055;SDS011;1033;52.560;13.374;2022-12-13T08:47:23;29.55;;;14.15;;
2055;SDS011;1033;52.560;13.374;2022-12-13T08:49:56;31.27;;;16.20;;
2055;SDS011;1033;52.560;13.374;2022-12-13T08:52:38;23.20;;;14.18;;
2055;SDS011;1033;52.560;13.374;2022-12-13T08:55:11;30.02;;;14.05;;
2055;SDS011;1033;52.560;13.374;2022-12-13T08:57:43;23.63;;;14.18;;
2055;SDS011;1033;52.560;13.374;2022-12-13T09:00:17;26.50;;;11.65;;
2055;SDS011;1033;52.560;13.374;2022-12-13T09:03:03;28.48;;;14.95;;
2055;SDS011;1033;52.560;13.374;2022-12-13T09:06:15;20.80;;;12.50;;
2055;SDS011;1033;52.560;13.374;2022-12-13T09:08:46;24.38;;;13.05;;
2055;SDS011;1033;52.560;13.374;2022-12-13T09:11:17;17.05;;;12.38;;
2055;SDS011;1033;52.560;13.374;2022-12-13T09:14:03;19.88;;;12.50;;
2055;SDS011;1033;52.560;13.374;2022-12-13T09:16:39;25.13;;;13.85;;
2055;SDS011;1033;52.560;13.374;2022-12-13T09:19:18;26.02;;;13.82;;
2055;SDS011;1033;52.560;13.374;2022-12-13T09:21:52;30.80;;;13.95;;
2055;SDS011;1033;52.560;13.374;2022-12-13T09:24:28;21.90;;;12.52;;
2055;SDS011;1033;52.560;13.374;2022-12-13T09:27:05;26.23;;;15.32;;
2055;SDS011;1033;52.560;13.374;2022-12-13T09:29:54;23.77;;;13.35;;
2055;SDS011;1033;52.560;13.374;2022-12-13T09:33:32;20.48;;;12.00;;
2055;SDS011;1033;52.560;13.374;2022-12-13T09:36:57;25.63;;;14.30;;
2055;SDS011;1033;52.560;13.374;2022-12-13T09:40:25;33.92;;;14.07;;
2055;SDS011;1033;52.560;13.374;2022-12-13T09:43:06;28.55;;;15.27;;
2055;SDS011;1033;52.560;13.374;2022-12-13T09:46:04;23.88;;;12.20;;
2055;SDS011;1033;52.560;13.374;2022-12-13T09:48:51;19.98;;;11.43;;
2055;SDS011;1033;52.560;13.374;2022-12-13T09:54:41;15.57;;;11.77;;
2055;SDS011;1033;52.560;13.374;2022-12-13T09:58:04;24.15;;;13.60;;
2055;SDS011;1033;52.560;13.374;2022-12-13T10:01:03;20.27;;;12.35;;
2055;SDS011;1033;52.560;13.374;2022-12-13T10:03:34;23.00;;;13.90;;
2055;SDS011;1033;52.560;13.374;2022-12-13T10:06:14;23.90;;;12.98;;
2055;SDS011;1033;52.560;13.374;2022-12-13T10:08:50;25.50;;;14.35;;
2055;SDS011;1033;52.560;13.374;2022-12-13T10:11:24;19.10;;;10.98;;
2055;SDS011;1033;52.560;13.374;2022-12-13T10:13:59;26.27;;;12.98;;
2055;SDS011;1033;52.560;13.374;2022-12-13T10:16:36;23.05;;;13.45;;
2055;SDS011;1033;52.560;13.374;2022-12-13T10:19:13;20.08;;;12.02;;
2055;SDS011;1033;52.560;13.374;2022-12-13T10:21:54;20.02;;;10.50;;
2055;SDS011;1033;52.560;13.374;2022-12-13T10:24:27;19.45;;;12.80;;
2055;SDS011;1033;52.560;13.374;2022-12-13T10:27:15;19.70;;;12.95;;
2055;SDS011;1033;52.560;13.374;2022-12-13T10:30:00;18.98;;;11.80;;
2055;SDS011;1033;52.560;13.374;2022-12-13T10:32:41;19.58;;;11.13;;
2055;SDS011;1033;52.560;13.374;2022-12-13T10:35:29;17.08;;;10.00;;
2055;SDS011;1033;52.560;13.374;2022-12-13T10:38:55;24.35;;;12.65;;
2055;SDS011;1033;52.560;13.374;2022-12-13T10:41:29;22.65;;;13.95;;
2055;SDS011;1033;52.560;13.374;2022-12-13T10:44:20;16.25;;;11.30;;
2055;SDS011;1033;52.560;13.374;2022-12-13T10:47:03;24.60;;;14.65;;
2055;SDS011;1033;52.560;13.374;2022-12-13T10:49:48;16.13;;;10.25;;
2055;SDS011;1033;52.560;13.374;2022-12-13T10:52:26;20.58;;;11.00;;
2055;SDS011;1033;52.560;13.374;2022-12-13T10:54:59;19.00;;;12.18;;
2055;SDS011;1033;52.560;13.374;2022-12-13T10:57:49;21.98;;;12.85;;
2055;SDS011;1033;52.560;13.374;2022-12-13T11:00:30;19.17;;;10.77;;
2055;SDS011;1033;52.560;13.374;2022-12-13T11:03:04;19.45;;;11.25;;
2055;SDS011;1033;52.560;13.374;2022-12-13T11:05:36;18.77;;;11.48;;
2055;SDS011;1033;52.560;13.374;2022-12-13T11:08:13;20.02;;;11.23;;
2055;SDS011;1033;52.560;13.374;2022-12-13T11:10:55;19.27;;;11.10;;
2055;SDS011;1033;52.560;13.374;2022-12-13T11:13:29;18.20;;;10.60;;
2055;SDS011;1033;52.560;13.374;2022-12-13T11:16:04;20.60;;;12.27;;
2055;SDS011;1033;52.560;13.374;2022-12-13T11:18:50;30.30;;;11.85;;
2055;SDS011;1033;52.560;13.374;2022-12-13T11:21:26;16.25;;;11.50;;
2055;SDS011;1033;52.560;13.374;2022-12-13T11:24:00;12.77;;;8.52;;
2055;SDS011;1033;52.560;13.374;2022-12-13T11:27:46;19.45;;;10.02;;
2055;SDS011;1033;52.560;13.374;2022-12-13T11:31:12;19.13;;;12.48;;
2055;SDS011;1033;52.560;13.374;2022-12-13T11:33:52;22.52;;;10.35;;
2055;SDS011;1033;52.560;13.374;2022-12-13T11:36:33;16.58;;;10.23;;
2055;SDS011;1033;52.560;13.374;2022-12-13T11:39:15;15.00;;;8.77;;
2055;SDS011;1033;52.560;13.374;2022-12-13T11:41:50;18.15;;;10.10;;
2055;SDS011;1033;52.560;13.374;2022-12-13T11:44:26;17.17;;;11.23;;
2055;SDS011;1033;52.560;13.374;2022-12-13T11:47:16;23.20;;;12.73;;
2055;SDS011;1033;52.560;13.374;2022-12-13T11:50:02;19.50;;;11.50;;
2055;SDS011;1033;52.560;13.374;2022-12-13T11:53:03;21.63;;;10.02;;
2055;SDS011;1033;52.560;13.374;2022-12-13T11:55:51;20.55;;;10.18;;
2055;SDS011;1033;52.560;13.374;2022-12-13T11:58:28;21.73;;;12.50;;
2055;SDS011;1033;52.560;13.374;2022-12-13T12:01:31;12.90;;;9.10;;
2055;SDS011;1033;52.560;13.374;2022-12-13T12:04:07;20.02;;;9.68;;
2055;SDS011;1033;52.560;13.374;2022-12-13T12:06:48;16.23;;;9.77;;
2055;SDS011;1033;52.560;13.374;2022-12-13T12:09:47;13.07;;;9.32;;
2055;SDS011;1033;52.560;13.374;2022-12-13T12:12:22;23.67;;;9.52;;
2055;SDS011;1033;52.560;13.374;2022-12-13T12:14:59;17.45;;;8.57;;
2055;SDS011;1033;52.560;13.374;2022-12-13T12:17:42;18.75;;;9.02;;
2055;SDS011;1033;52.560;13.374;2022-12-13T12:20:13;15.10;;;8.50;;
2055;SDS011;1033;52.560;13.374;2022-12-13T12:22:52;14.88;;;10.80;;
2055;SDS011;1033;52.560;13.374;2022-12-13T12:25:34;20.80;;;10.63;;
2055;SDS011;1033;52.560;13.374;2022-12-13T12:28:13;25.02;;;10.88;;
2055;SDS011;1033;52.560;13.374;2022-12-13T12:30:55;17.40;;;9.55;;
2055;SDS011;1033;52.560;13.374;2022-12-13T12:33:35;17.77;;;9.25;;
2055;SDS011;1033;52.560;13.374;2022-12-13T12:36:19;16.42;;;11.45;;
2055;SDS011;1033;52.560;13.374;2022-12-13T12:42:09;15.30;;;10.38;;
2055;SDS011;1033;52.560;13.374;2022-12-13T12:45:28;15.27;;;9.02;;
2055;SDS011;1033;52.560;13.374;2022-12-13T12:48:27;17.92;;;11.07;;
2055;SDS011;1033;52.560;13.374;2022-12-13T12:51:30;9.63;;;8.77;;
2055;SDS011;1033;52.560;13.374;2022-12-13T12:54:10;19.00;;;11.32;;
2055;SDS011;1033;52.560;13.374;2022-12-13T12:56:58;17.08;;;10.60;;
2055;SDS011;1033;52.560;13.374;2022-12-13T12:59:40;17.75;;;14.43;;
2055;SDS011;1033;52.560;13.374;2022-12-13T13:02:28;21.20;;;11.30;;
2055;SDS011;1033;52.560;13.374;2022-12-13T13:09:04;16.73;;;8.85;;
2055;SDS011;1033;52.560;13.374;2022-12-13T13:51:50;11.13;;;8.90;;
2055;SDS011;1033;52.560;13.374;2022-12-13T13:58:51;13.57;;;7.47;;
2055;SDS011;1033;52.560;13.374;2022-12-13T14:02:20;23.33;;;11.40;;
2055;SDS011;1033;52.560;13.374;2022-12-13T14:08:19;20.67;;;11.57;;
2055;SDS011;1033;52.560;13.374;2022-12-13T14:19:22;20.58;;;9.52;;
2055;SDS011;1033;52.560;13.374;2022-12-13T14:22:44;19.15;;;9.82;;
2055;SDS011;1033;52.560;13.374;2022-12-13T14:29:28;13.50;;;8.55;;
2055;SDS011;1033;52.560;13.374;2022-12-13T14:33:10;18.05;;;10.10;;
2055;SDS011;1033;52.560;13.374;2022-12-13T14:40:46;17.73;;;9.90;;
2055;SDS011;1033;52.560;13.374;2022-12-13T14:50:42;18.23;;;10.88;;
2055;SDS011;1033;52.560;13.374;2022-12-13T14:54:02;20.58;;;12.07;;
2055;SDS011;1033;52.560;13.374;2022-12-13T14:56:47;14.90;;;8.90;;
2055;SDS011;1033;52.560;13.374;2022-12-13T14:59:23;17.63;;;9.98;;
2055;SDS011;1033;52.560;13.374;2022-12-13T15:01:54;15.57;;;9.55;;
2055;SDS011;1033;52.560;13.374;2022-12-13T15:04:28;19.88;;;9.65;;
2055;SDS011;1033;52.560;13.374;2022-12-13T15:07:00;23.52;;;11.35;;
2055;SDS011;1033;52.560;13.374;2022-12-13T15:09:33;18.98;;;11.23;;
2055;SDS011;1033;52.560;13.374;2022-12-13T15:14:55;13.60;;;9.15;;
2055;SDS011;1033;52.560;13.374;2022-12-13T15:17:32;14.15;;;9.70;;
2055;SDS011;1033;52.560;13.374;2022-12-13T15:20:23;14.10;;;7.75;;
2055;SDS011;1033;52.560;13.374;2022-12-13T15:23:04;12.88;;;9.10;;
2055;SDS011;1033;52.560;13.374;2022-12-13T15:25:44;12.20;;;8.05;;
2055;SDS011;1033;52.560;13.374;2022-12-13T15:28:18;15.38;;;9.75;;
2055;SDS011;1033;52.560;13.374;2022-12-13T15:30:47;14.27;;;8.90;;
2055;SDS011;1033;52.560;13.374;2022-12-13T15:33:20;16.40;;;8.15;;
2055;SDS011;1033;52.560;13.374;2022-12-13T15:36:03;16.33;;;10.20;;
2055;SDS011;1033;52.560;13.374;2022-12-13T15:38:36;11.25;;;7.45;;
2055;SDS011;1033;52.560;13.374;2022-12-13T15:41:13;14.98;;;6.93;;
2055;SDS011;1033;52.560;13.374;2022-12-13T15:43:45;9.65;;;7.35;;
2055;SDS011;1033;52.560;13.374;2022-12-13T15:46:22;12.77;;;8.02;;
2055;SDS011;1033;52.560;13.374;2022-12-13T15:48:53;11.27;;;7.35;;
2055;SDS011;1033;52.560;13.374;2022-12-13T15:51:27;14.40;;;8.55;;
2055;SDS011;1033;52.560;13.374;2022-12-13T15:54:04;10.10;;;7.88;;
2055;SDS011;1033;52.560;13.374;2022-12-13T15:56:57;31.48;;;14.98;;
2055;SDS011;1033;52.560;13.374;2022-12-13T15:59:29;17.83;;;9.05;;
2055;SDS011;1033;52.560;13.374;2022-12-13T16:01:59;20.85;;;11.52;;
2055;SDS011;1033;52.560;13.374;2022-12-13T16:04:30;23.67;;;10.07;;
2055;SDS011;1033;52.560;13.374;2022-12-13T16:07:01;15.23;;;9.35;;
2055;SDS011;1033;52.560;13.374;2022-12-13T16:09:32;13.70;;;8.00;;
2055;SDS011;1033;52.560;13.374;2022-12-13T16:12:04;14.63;;;7.88;;
2055;SDS011;1033;52.560;13.374;2022-12-13T16:14:36;19.45;;;8.10;;
2055;SDS011;1033;52.560;13.374;2022-12-13T16:17:18;10.15;;;5.70;;
2055;SDS011;1033;52.560;13.374;2022-12-13T16:19:50;8.60;;;6.30;;
2055;SDS011;1033;52.560;13.374;2022-12-13T16:22:22;12.13;;;5.80;;
2055;SDS011;1033;52.560;13.374;2022-12-13T16:24:51;9.75;;;5.45;;
2055;SDS011;1033;52.560;13.374;2022-12-13T16:27:22;14.13;;;7.57;;
2055;SDS011;1033;52.560;13.374;2022-12-13T16:29:51;26.73;;;8.05;;
2055;SDS011;1033;52.560;13.374;2022-12-13T16:32:21;17.00;;;6.82;;
2055;SDS011;1033;52.560;13.374;2022-12-13T16:34:50;6.93;;;4.80;;
2055;SDS011;1033;52.560;13.374;2022-12-13T16:37:20;15.27;;;6.70;;
2055;SDS011;1033;52.560;13.374;2022-12-13T16:39:53;15.40;;;6.93;;
2055;SDS011;1033;52.560;13.374;2022-12-13T16:42:27;19.75;;;9.93;;
2055;SDS011;1033;52.560;13.374;2022-12-13T16:44:57;13.90;;;8.10;;
2055;SDS011;1033;52.560;13.374;2022-12-13T16:47:46;12.60;;;6.25;;
2055;SDS011;1033;52.560;13.374;2022-12-13T16:50:17;18.80;;;9.20;;
2055;SDS011;1033;52.560;13.374;2022-12-13T16:52:49;17.50;;;9.65;;
2055;SDS011;1033;52.560;13.374;2022-12-13T16:55:19;19.65;;;10.73;;
2055;SDS011;1033;52.560;13.374;2022-12-13T16:57:55;15.07;;;9.13;;
2055;SDS011;1033;52.560;13.374;2022-12-13T17:00:26;13.13;;;9.10;;
2055;SDS011;1033;52.560;13.374;2022-12-13T17:03:06;20.10;;;12.18;;
2055;SDS011;1033;52.560;13.374;2022-12-13T17:06:18;13.20;;;8.68;;
2055;SDS011;1033;52.560;13.374;2022-12-13T17:09:33;20.27;;;8.55;;
2055;SDS011;1033;52.560;13.374;2022-12-13T17:12:03;21.13;;;10.48;;
2055;SDS011;1033;52.560;13.374;2022-12-13T17:14:32;15.88;;;10.40;;
2055;SDS011;1033;52.560;13.374;2022-12-13T17:17:02;27.65;;;11.30;;
2055;SDS011;1033;52.560;13.374;2022-12-13T17:19:32;11.52;;;8.85;;
2055;SDS011;1033;52.560;13.374;2022-12-13T17:22:02;19.10;;;12.00;;
2055;SDS011;1033;52.560;13.374;2022-12-13T17:24:34;18.05;;;9.95;;
2055;SDS011;1033;52.560;13.374;2022-12-13T17:27:38;17.35;;;10.98;;
2055;SDS011;1033;52.560;13.374;2022-12-13T17:31:30;19.50;;;9.55;;
2055;SDS011;1033;52.560;13.374;2022-12-13T17:35:56;13.38;;;8.45;;
2055;SDS011;1033;52.560;13.374;2022-12-13T17:39:29;15.18;;;8.85;;
2055;SDS011;1033;52.560;13.374;2022-12-13T17:55:07;18.50;;;10.73;;
2055;SDS011;1033;52.560;13.374;2022-12-13T18:03:14;26.73;;;10.70;;
2055;SDS011;1033;52.560;13.374;2022-12-13T18:06:22;16.23;;;10.30;;
2055;SDS011;1033;52.560;13.374;2022-12-13T18:09:03;15.10;;;10.80;;
2055;SDS011;1033;52.560;13.374;2022-12-13T18:19:06;14.38;;;9.40;;
2055;SDS011;1033;52.560;13.374;2022-12-13T18:21:49;11.55;;;10.20;;
2055;SDS011;1033;52.560;13.374;2022-12-13T18:25:08;17.85;;;8.25;;
2055;SDS011;1033;52.560;13.374;2022-12-13T18:29:12;16.88;;;11.35;;
2055;SDS011;1033;52.560;13.374;2022-12-13T18:32:21;13.02;;;9.80;;
2055;SDS011;1033;52.560;13.374;2022-12-13T18:34:52;14.00;;;8.48;;
2055;SDS011;1033;52.560;13.374;2022-12-13T18:37:21;16.67;;;10.57;;
2055;SDS011;1033;52.560;13.374;2022-12-13T18:39:58;19.20;;;9.38;;
2055;SDS011;1033;52.560;13.374;2022-12-13T18:43:10;19.95;;;10.40;;
2055;SDS011;1033;52.560;13.374;2022-12-13T21:07:17;13.63;;;8.18;;
2055;SDS011;1033;52.560;13.374;2022-12-13T21:10:07;18.08;;;10.05;;
2055;SDS011;1033;52.560;13.374;2022-12-13T21:12:36;11.13;;;8.27;;
2055;SDS011;1033;52.560;13.374;2022-12-13T21:15:06;18.05;;;9.13;;
2055;SDS011;1033;52.560;13.374;2022-12-13T21:17:35;12.82;;;8.30;;
2055;SDS011;1033;52.560;13.374;2022-12-13T21:20:05;18.55;;;10.13;;
2055;SDS011;1033;52.560;13.374;2022-12-13T21:25:30;15.55;;;10.90;;
2055;SDS011;1033;52.560;13.374;2022-12-13T21:28:03;19.92;;;8.52;;
2055;SDS011;1033;52.560;13.374;2022-12-13T21:30:33;15.10;;;8.80;;
2055;SDS011;1033;52.560;13.374;2022-12-13T21:33:04;10.93;;;6.20;;
2055;SDS011;1033;52.560;13.374;2022-12-13T21:35:33;13.73;;;7.70;;
2055;SDS011;1033;52.560;13.374;2022-12-13T21:38:03;19.55;;;9.95;;
2055;SDS011;1033;52.560;13.374;2022-12-13T21:40:34;12.25;;;7.38;;
2055;SDS011;1033;52.560;13.374;2022-12-13T21:43:05;20.17;;;8.60;;
2055;SDS011;1033;52.560;13.374;2022-12-13T21:45:34;15.80;;;8.25;;
2055;SDS011;1033;52.560;13.374;2022-12-13T21:48:04;16.25;;;9.20;;
2055;SDS011;1033;52.560;13.374;2022-12-13T21:50:33;16.58;;;9.50;;
2055;SDS011;1033;52.560;13.374;2022-12-13T21:53:02;9.38;;;5.25;;
2055;SDS011;1033;52.560;13.374;2022-12-13T21:55:33;14.18;;;8.00;;
2055;SDS011;1033;52.560;13.374;2022-12-13T21:58:13;15.52;;;7.20;;
2055;SDS011;1033;52.560;13.374;2022-12-13T22:00:59;12.43;;;6.80;;
2055;SDS011;1033;52.560;13.374;2022-12-13T22:06:49;12.55;;;7.25;;
2055;SDS011;1033;52.560;13.374;2022-12-13T22:09:18;11.20;;;8.15;;
2055;SDS011;1033;52.560;13.374;2022-12-13T22:11:49;15.80;;;9.05;;
2055;SDS011;1033;52.560;13.374;2022-12-13T22:14:18;19.27;;;8.90;;
2055;SDS011;1033;52.560;13.374;2022-12-13T22:16:52;16.13;;;9.65;;
2055;SDS011;1033;52.560;13.374;2022-12-13T22:19:21;14.63;;;8.32;;
2055;SDS011;1033;52.560;13.374;2022-12-13T22:21:50;17.17;;;9.43;;
2055;SDS011;1033;52.560;13.374;2022-12-13T22:24:19;10.23;;;8.35;;
2055;SDS011;1033;52.560;13.374;2022-12-13T22:26:51;16.52;;;9.48;;
2055;SDS011;1033;52.560;13.374;2022-12-13T22:29:20;14.10;;;10.82;;
2055;SDS011;1033;52.560;13.374;2022-12-13T22:31:50;20.80;;;10.95;;
2055;SDS011;1033;52.560;13.374;2022-12-13T22:34:19;24.15;;;10.93;;
2055;SDS011;1033;52.560;13.374;2022-12-13T22:36:48;21.08;;;10.95;;
2055;SDS011;1033;52.560;13.374;2022-12-13T22:39:18;16.63;;;10.57;;
2055;SDS011;1033;52.560;13.374;2022-12-13T22:41:49;17.58;;;10.48;;
2055;SDS011;1033;52.560;13.374;2022-12-13T22:44:19;17.92;;;10.45;;
2055;SDS011;1033;52.560;13.374;2022-12-13T22:46:49;15.35;;;9.70;;
2055;SDS011;1033;52.560;13.374;2022-12-13T22:49:18;17.30;;;9.75;;
2055;SDS011;1033;52.560;13.374;2022-12-13T22:51:48;12.98;;;10.02;;
2055;SDS011;1033;52.560;13.374;2022-12-13T22:54:17;20.67;;;9.55;;
2055;SDS011;1033;52.560;13.374;2022-12-13T22:56:47;22.65;;;9.02;;
2055;SDS011;1033;52.560;13.374;2022-12-13T22:59:18;24.90;;;12.35;;
2055;SDS011;1033;52.560;13.374;2022-12-13T23:01:48;17.70;;;9.32;;
2055;SDS011;1033;52.560;13.374;2022-12-13T23:04:25;12.18;;;7.35;;
2055;SDS011;1033;52.560;13.374;2022-12-13T23:06:54;19.63;;;8.93;;
2055;SDS011;1033;52.560;13.374;2022-12-13T23:09:23;22.77;;;11.10;;
2055;SDS011;1033;52.560;13.374;2022-12-13T23:11:52;21.73;;;9.95;;
2055;SDS011;1033;52.560;13.374;2022-12-13T23:14:46;11.23;;;8.05;;
2055;SDS011;1033;52.560;13.374;2022-12-13T23:17:16;19.65;;;11.05;;
2055;SDS011;1033;52.560;13.374;2022-12-13T23:19:45;13.25;;;8.32;;
2055;SDS011;1033;52.560;13.374;2022-12-13T23:22:19;10.88;;;8.73;;
2055;SDS011;1033;52.560;13.374;2022-12-13T23:24:49;12.38;;;8.10;;
2055;SDS011;1033;52.560;13.374;2022-12-13T23:27:20;12.05;;;7.55;;
2055;SDS011;1033;52.560;13.374;2022-12-13T23:29:51;19.13;;;10.15;;
2055;SDS011;1033;52.560;13.374;2022-12-13T23:32:20;14.77;;;9.77;;
2055;SDS011;1033;52.560;13.374;2022-12-13T23:34:49;19.60;;;10.02;;
2055;SDS011;1033;52.560;13.374;2022-12-13T23:37:19;14.02;;;7.80;;
2055;SDS011;1033;52.560;13.374;2022-12-13T23:39:48;16.10;;;8.05;;
2055;SDS011;1033;52.560;13.374;2022-12-13T23:42:17;18.85;;;10.27;;
2055;SDS011;1033;52.560;13.374;2022-12-13T23:44:46;10.88;;;8.73;;
2055;SDS011;1033;52.560;13.374;2022-12-13T23:47:17;11.38;;;6.75;;
2055;SDS011;1033;52.560;13.374;2022-12-13T23:49:46;16.70;;;9.75;;
2055;SDS011;1033;52.560;13.374;2022-12-13T23:52:15;16.73;;;10.13;;
2055;SDS011;1033;52.560;13.374;2022-12-13T23:54:44;25.35;;;9.27;;
2055;SDS011;1033;52.560;13.374;2022-12-13T23:57:13;10.30;;;6.32;;
